createdAt,value
2018-09-03T00:00:39.551Z,99146.22
2018-09-03T00:03:06.705Z,99108.31
2018-09-03T00:05:33.913Z,99138.00
2018-09-03T00:08:01.078Z,99132.09
2018-09-03T00:10:28.223Z,99128.88
2018-09-03T00:12:55.347Z,99128.03
2018-09-03T00:15:22.481Z,99123.08
2018-09-03T00:17:49.602Z,99120.72
2018-09-03T00:20:16.730Z,99116.70
2018-09-03T00:22:43.861Z,99117.73
2018-09-03T00:25:11.145Z,99121.25
2018-09-03T00:27:38.542Z,99117.25
2018-09-03T00:30:06.041Z,99109.23
2018-09-03T00:32:39.145Z,99101.70
2018-09-03T00:35:11.819Z,99110.08
2018-09-03T00:37:44.936Z,99110.26
2018-09-03T00:40:17.573Z,99110.08
2018-09-03T00:42:50.447Z,99109.77
2018-09-03T00:45:23.299Z,99104.74
2018-09-03T00:47:50.414Z,99099.03
2018-09-03T00:50:17.530Z,99102.88
2018-09-03T00:52:44.677Z,99110.83
2018-09-03T00:55:11.779Z,99108.14
2018-09-03T00:57:38.893Z,99106.55
2018-09-03T01:00:06.488Z,99104.13
2018-09-03T01:02:33.630Z,99105.56
2018-09-03T01:05:00.753Z,99102.72
2018-09-03T01:07:27.830Z,99094.45
2018-09-03T01:09:54.946Z,99106.05
2018-09-03T01:12:22.037Z,99104.41
2018-09-03T01:14:49.239Z,99114.86
2018-09-03T01:17:16.328Z,99117.95
2018-09-03T01:19:43.442Z,99129.12
2018-09-03T01:22:10.552Z,99132.42
2018-09-03T01:24:37.682Z,99136.95
2018-09-03T01:27:05.006Z,99141.19
2018-09-03T01:29:32.168Z,99141.63
2018-09-03T01:31:59.198Z,99146.70
2018-09-03T01:34:26.690Z,99149.68
2018-09-03T01:36:53.834Z,99149.02
2018-09-03T01:39:20.942Z,99150.94
2018-09-03T01:41:48.063Z,99149.64
2018-09-03T01:44:15.179Z,99149.59
2018-09-03T01:46:42.317Z,99152.17
2018-09-03T01:49:09.413Z,99155.33
2018-09-03T01:51:36.528Z,99159.88
2018-09-03T01:54:03.626Z,99156.31
2018-09-03T01:56:30.750Z,99153.28
2018-09-03T01:58:57.840Z,99158.03
2018-09-03T02:01:25.049Z,99149.77
2018-09-03T02:03:52.182Z,99136.53
2018-09-03T02:06:19.651Z,99129.63
2018-09-03T02:08:46.740Z,99131.86
2018-09-03T02:11:13.967Z,99127.42
2018-09-03T02:13:41.128Z,99127.47
2018-09-03T02:16:08.228Z,99119.28
2018-09-03T02:18:35.362Z,99125.70
2018-09-03T02:21:02.495Z,99116.79
2018-09-03T02:23:29.598Z,99115.28
2018-09-03T02:25:56.718Z,99112.34
2018-09-03T02:28:23.843Z,99119.77
2018-09-03T02:30:50.967Z,99114.97
2018-09-03T02:33:22.090Z,99114.48
2018-09-03T02:35:49.219Z,99114.41
2018-09-03T02:38:16.335Z,99107.23
2018-09-03T02:40:43.431Z,99103.41
2018-09-03T02:43:10.593Z,99102.88
2018-09-03T02:45:37.701Z,99103.36
2018-09-03T02:48:04.898Z,99103.67
2018-09-03T02:50:32.020Z,99102.28
2018-09-03T02:52:59.120Z,99094.33
2018-09-03T02:55:26.265Z,99095.05
2018-09-03T02:57:53.370Z,99093.48
2018-09-03T03:00:24.681Z,99091.34
2018-09-03T03:02:52.071Z,99089.66
2018-09-03T03:05:19.192Z,99086.01
2018-09-03T03:07:46.323Z,99085.78
2018-09-03T03:10:13.462Z,99083.34
2018-09-03T03:12:40.558Z,99071.94
2018-09-03T03:15:07.726Z,99074.30
2018-09-03T03:17:34.806Z,99070.34
2018-09-03T03:20:01.914Z,99068.22
2018-09-03T03:22:28.998Z,99059.41
2018-09-03T03:24:56.168Z,99063.20
2018-09-03T03:27:23.259Z,99057.61
2018-09-03T03:29:50.363Z,99057.17
2018-09-03T03:32:17.486Z,99057.38
2018-09-03T03:34:44.577Z,99051.73
2018-09-03T03:37:11.690Z,99049.59
2018-09-03T03:39:38.785Z,99049.37
2018-09-03T03:42:05.938Z,99045.48
2018-09-03T03:44:33.040Z,99039.89
2018-09-03T03:47:00.146Z,99036.55
2018-09-03T03:49:27.222Z,99031.75
2018-09-03T03:51:54.406Z,99036.97
2018-09-03T03:54:21.505Z,99036.05
2018-09-03T03:56:48.604Z,99036.64
2018-09-03T03:59:15.685Z,99040.73
2018-09-03T04:01:42.823Z,99036.11
2018-09-03T04:04:09.997Z,99035.56
2018-09-03T04:06:37.144Z,99038.19
2018-09-03T04:09:06.598Z,99045.03
2018-09-03T04:11:33.691Z,99039.75
2018-09-03T04:14:00.789Z,99041.88
2018-09-03T04:16:27.960Z,99046.42
2018-09-03T04:18:55.107Z,99055.23
2018-09-03T04:21:22.221Z,99056.56
2018-09-03T04:23:49.365Z,99063.23
2018-09-03T04:26:16.470Z,99049.58
2018-09-03T04:28:43.612Z,99048.98
2018-09-03T04:31:10.666Z,99050.22
2018-09-03T04:33:37.837Z,99049.25
2018-09-03T04:36:05.071Z,99051.40
2018-09-03T04:38:32.248Z,99052.99
2018-09-03T04:40:59.323Z,99047.48
2018-09-03T04:43:26.473Z,99050.42
2018-09-03T04:45:53.586Z,99049.14
2018-09-03T04:48:20.744Z,99048.37
2018-09-03T04:50:47.821Z,99049.58
2018-09-03T04:53:14.926Z,99047.17
2018-09-03T04:55:42.056Z,99008.19
2018-09-03T04:58:09.217Z,99044.60
2018-09-03T05:00:36.317Z,99049.23
2018-09-03T05:03:03.417Z,99049.99
2018-09-03T05:05:30.683Z,99057.46
2018-09-03T05:07:57.798Z,99052.25
2018-09-03T05:10:25.000Z,99048.33
2018-09-03T05:12:52.137Z,99052.17
2018-09-03T05:15:19.262Z,99051.02
2018-09-03T05:17:46.432Z,99056.90
2018-09-03T05:20:14.073Z,99050.35
2018-09-03T05:22:41.221Z,99046.92
2018-09-03T05:25:08.322Z,99044.96
2018-09-03T05:27:35.448Z,99047.66
2018-09-03T05:30:02.617Z,99045.24
2018-09-03T05:32:29.712Z,99050.69
2018-09-03T05:34:56.878Z,99049.66
2018-09-03T05:37:24.106Z,99052.33
2018-09-03T05:39:51.258Z,99051.40
2018-09-03T05:42:18.406Z,99057.97
2018-09-03T05:44:45.601Z,99052.89
2018-09-03T05:47:12.977Z,99057.97
2018-09-03T05:49:40.106Z,99056.05
2018-09-03T05:52:07.193Z,99060.05
2018-09-03T05:54:34.318Z,99055.91
2018-09-03T05:57:01.405Z,99050.23
2018-09-03T05:59:28.573Z,99052.28
2018-09-03T06:01:56.220Z,99048.27
2018-09-03T06:04:23.361Z,99051.27
2018-09-03T06:06:50.578Z,99047.00
2018-09-03T06:09:17.652Z,99055.70
2018-09-03T06:11:44.796Z,99056.89
2018-09-03T06:14:12.160Z,99059.34
2018-09-03T06:16:39.340Z,99062.02
2018-09-03T06:19:06.414Z,99063.30
2018-09-03T06:21:33.559Z,99058.86
2018-09-03T06:24:00.889Z,99055.13
2018-09-03T06:26:28.077Z,99059.50
2018-09-03T06:28:55.221Z,99060.30
2018-09-03T06:31:22.321Z,99058.60
2018-09-03T06:33:49.441Z,99054.70
2018-09-03T06:36:16.838Z,99066.67
2018-09-03T06:38:43.994Z,99062.24
2018-09-03T06:41:11.404Z,99055.42
2018-09-03T06:43:38.915Z,99054.98
2018-09-03T06:46:06.074Z,99055.16
2018-09-03T06:48:33.589Z,99048.89
2018-09-03T06:51:00.808Z,99014.88
2018-09-03T06:53:28.006Z,99047.50
2018-09-03T06:55:55.212Z,99049.86
2018-09-03T06:58:22.355Z,99048.83
2018-09-03T07:00:49.582Z,99049.86
2018-09-03T07:03:16.830Z,99047.92
2018-09-03T07:05:43.973Z,99046.20
2018-09-03T07:08:11.218Z,99044.81
2018-09-03T07:10:38.402Z,99038.08
2018-09-03T07:13:06.632Z,99035.73
2018-09-03T07:15:34.353Z,99037.80
2018-09-03T07:18:01.718Z,99031.86
2018-09-03T07:20:28.838Z,99034.44
2018-09-03T07:22:56.018Z,99042.11
2018-09-03T07:25:23.098Z,99039.59
2018-09-03T07:27:50.307Z,99036.55
2018-09-03T07:30:17.446Z,99048.70
2018-09-03T07:32:44.964Z,99038.19
2018-09-03T07:35:12.338Z,99038.41
2018-09-03T07:37:39.454Z,99037.22
2018-09-03T07:40:06.977Z,99037.93
2018-09-03T07:42:34.094Z,99038.45
2018-09-03T07:45:01.234Z,99038.16
2018-09-03T07:47:28.404Z,99036.06
2018-09-03T07:49:55.571Z,99042.30
2018-09-03T07:52:22.754Z,99035.20
2018-09-03T07:54:49.874Z,99034.41
2018-09-03T07:57:16.998Z,99040.62
2018-09-03T07:59:44.131Z,99035.55
2018-09-03T08:02:11.282Z,99037.37
2018-09-03T08:04:38.435Z,99035.89
2018-09-03T08:07:05.760Z,99036.53
2018-09-03T08:09:33.153Z,99034.25
2018-09-03T08:12:00.366Z,99035.17
2018-09-03T08:14:27.493Z,99035.30
2018-09-03T08:16:54.696Z,99039.05
2018-09-03T08:19:21.906Z,99036.41
2018-09-03T08:21:49.141Z,99041.09
2018-09-03T08:24:16.263Z,99040.52
2018-09-03T08:26:43.673Z,99042.71
2018-09-03T08:29:10.825Z,99045.93
2018-09-03T08:31:37.996Z,99044.27
2018-09-03T08:34:05.131Z,99045.00
2018-09-03T08:36:32.274Z,99048.87
2018-09-03T08:38:59.432Z,99047.12
2018-09-03T08:41:26.595Z,99049.42
2018-09-03T08:43:53.825Z,99046.42
2018-09-03T08:46:20.973Z,99044.53
2018-09-03T08:48:48.080Z,99045.94
2018-09-03T08:51:15.266Z,99048.70
2018-09-03T08:53:42.528Z,99041.85
2018-09-03T08:56:09.749Z,99045.84
2018-09-03T08:58:36.966Z,99042.19
2018-09-03T09:01:04.078Z,99048.45
2018-09-03T09:03:36.825Z,99046.39
2018-09-03T09:06:03.960Z,99040.83
2018-09-03T09:08:31.111Z,99040.73
2018-09-03T09:10:58.335Z,99041.39
2018-09-03T09:13:25.517Z,99037.52
2018-09-03T09:15:52.631Z,99029.42
2018-09-03T09:18:19.797Z,99030.97
2018-09-03T09:20:46.906Z,99027.64
2018-09-03T09:23:14.558Z,99019.75
2018-09-03T09:25:41.678Z,99020.40
2018-09-03T09:28:14.910Z,99016.91
2018-09-03T09:30:42.030Z,99018.71
2018-09-03T09:33:09.894Z,99021.31
2018-09-03T09:35:37.435Z,99008.66
2018-09-03T09:38:04.638Z,99011.41
2018-09-03T09:40:31.869Z,99014.22
2018-09-03T09:42:59.216Z,99014.34
2018-09-03T09:45:26.658Z,98975.87
2018-09-03T09:47:53.890Z,99005.97
2018-09-03T09:50:21.278Z,99005.64
2018-09-03T09:52:48.457Z,99002.10
2018-09-03T09:55:15.713Z,98999.51
2018-09-03T09:57:42.989Z,99002.42
2018-09-03T10:00:10.896Z,98996.34
2018-09-03T10:02:38.871Z,98988.55
2018-09-03T10:05:06.531Z,98991.44
2018-09-03T10:07:33.665Z,98989.53
2018-09-03T10:10:01.127Z,98992.27
2018-09-03T10:12:32.363Z,98988.72
2018-09-03T10:15:00.645Z,98994.79
2018-09-03T10:17:28.797Z,98989.59
2018-09-03T10:19:56.207Z,98990.33
2018-09-03T10:22:23.353Z,98984.80
2018-09-03T10:24:50.718Z,98991.59
2018-09-03T10:27:17.866Z,98991.42
2018-09-03T10:29:45.095Z,98986.55
2018-09-03T10:32:12.292Z,98991.06
2018-09-03T10:34:39.438Z,98993.44
2018-09-03T10:37:07.344Z,98985.56
2018-09-03T10:39:34.454Z,98984.24
2018-09-03T10:42:01.650Z,98993.81
2018-09-03T10:44:28.905Z,99000.33
2018-09-03T10:46:56.055Z,98992.72
2018-09-03T10:49:23.180Z,98986.69
2018-09-03T10:51:50.502Z,98986.16
2018-09-03T10:54:17.764Z,98979.58
2018-09-03T10:56:45.113Z,98978.70
2018-09-03T10:59:12.239Z,98974.93
2018-09-03T11:01:39.397Z,98973.38
2018-09-03T11:04:07.305Z,98975.28
2018-09-03T11:06:34.485Z,98978.56
2018-09-03T11:09:01.690Z,98968.05
2018-09-03T11:11:29.491Z,98968.73
2018-09-03T11:13:56.829Z,98962.53
2018-09-03T11:16:24.583Z,98963.70
2018-09-03T11:18:51.748Z,98968.31
2018-09-03T11:21:19.338Z,98968.94
2018-09-03T11:23:46.399Z,98968.36
2018-09-03T11:26:13.570Z,98967.74
2018-09-03T11:28:40.738Z,98964.31
2018-09-03T11:31:07.896Z,98966.55
2018-09-03T11:33:35.075Z,98964.89
2018-09-03T11:36:02.197Z,98961.47
2018-09-03T11:38:29.348Z,98952.66
2018-09-03T11:40:56.551Z,98853.25
2018-09-03T11:43:23.650Z,98953.70
2018-09-03T11:45:50.793Z,98952.28
2018-09-03T11:48:17.998Z,98953.97
2018-09-03T11:50:45.178Z,98946.91
2018-09-03T11:53:12.369Z,98948.20
2018-09-03T11:55:39.471Z,98946.61
2018-09-03T11:58:06.662Z,98943.22
2018-09-03T12:00:33.943Z,98944.33
2018-09-03T12:03:01.060Z,98945.82
2018-09-03T12:05:28.666Z,98941.97
2018-09-03T12:07:55.837Z,98939.77
2018-09-03T12:10:23.017Z,98940.91
2018-09-03T12:12:50.145Z,98939.00
2018-09-03T12:15:22.512Z,98940.73
2018-09-03T12:17:49.627Z,98935.60
2018-09-03T12:20:16.854Z,98935.36
2018-09-03T12:22:44.001Z,98926.87
2018-09-03T12:25:11.151Z,98928.03
2018-09-03T12:27:38.305Z,98924.95
2018-09-03T12:30:06.102Z,98920.23
2018-09-03T12:32:33.178Z,98916.83
2018-09-03T12:35:00.634Z,98920.47
2018-09-03T12:37:27.765Z,98915.38
2018-09-03T12:39:54.951Z,98921.34
2018-09-03T12:42:22.099Z,98920.34
2018-09-03T12:44:49.710Z,98918.33
2018-09-03T12:47:16.862Z,98925.36
2018-09-03T12:49:44.270Z,98916.07
2018-09-03T12:52:11.416Z,98912.19
2018-09-03T12:54:38.613Z,98917.23
2018-09-03T12:57:05.784Z,98921.38
2018-09-03T12:59:32.930Z,98916.19
2018-09-03T13:02:00.093Z,98915.00
2018-09-03T13:04:27.254Z,98918.45
2018-09-03T13:06:54.467Z,98907.48
2018-09-03T13:09:21.594Z,98905.49
2018-09-03T13:11:48.746Z,98906.64
2018-09-03T13:14:15.890Z,98903.24
2018-09-03T13:16:43.135Z,98905.85
2018-09-03T13:19:10.292Z,98905.20
2018-09-03T13:21:37.714Z,98896.80
2018-09-03T13:24:04.854Z,98893.13
2018-09-03T13:26:32.422Z,98899.67
2018-09-03T13:28:59.699Z,98896.09
2018-09-03T13:31:26.986Z,98895.39
2018-09-03T13:33:54.401Z,98886.13
2018-09-03T13:36:21.559Z,98881.30
2018-09-03T13:38:48.801Z,98883.81
2018-09-03T13:41:16.020Z,98883.08
2018-09-03T13:43:43.215Z,98887.95
2018-09-03T13:46:10.440Z,98887.16
2018-09-03T13:48:37.662Z,98892.88
2018-09-03T13:51:05.040Z,98888.31
2018-09-03T13:53:32.447Z,98887.19
2018-09-03T13:55:59.607Z,98896.60
2018-09-03T13:58:26.742Z,98888.24
2018-09-03T14:00:53.970Z,98887.01
2018-09-03T14:03:21.254Z,98862.91
2018-09-03T14:05:48.793Z,98895.02
2018-09-03T14:08:16.026Z,98890.66
2018-09-03T14:10:43.151Z,98887.31
2018-09-03T14:13:10.403Z,98886.70
2018-09-03T14:15:37.574Z,98889.27
2018-09-03T14:18:05.195Z,98883.30
2018-09-03T14:20:32.654Z,98882.08
2018-09-03T14:22:59.790Z,98887.95
2018-09-03T14:25:27.037Z,98881.77
2018-09-03T14:27:54.210Z,98882.36
2018-09-03T14:30:21.360Z,98883.19
2018-09-03T14:32:48.525Z,98882.95
2018-09-03T14:35:15.758Z,98889.02
2018-09-03T14:37:42.949Z,98884.59
2018-09-03T14:40:10.133Z,98878.25
2018-09-03T14:42:37.422Z,98869.57
2018-09-03T14:45:04.905Z,98869.02
2018-09-03T14:47:32.111Z,98875.67
2018-09-03T14:49:59.698Z,98876.09
2018-09-03T14:52:27.000Z,98876.36
2018-09-03T14:54:54.203Z,98872.87
2018-09-03T14:57:21.346Z,98865.91
2018-09-03T14:59:48.639Z,98865.53
2018-09-03T15:02:15.786Z,98866.07
2018-09-03T15:04:49.719Z,98859.73
2018-09-03T15:07:16.874Z,98858.81
2018-09-03T15:09:44.112Z,98862.07
2018-09-03T15:12:11.288Z,98856.61
2018-09-03T15:14:38.464Z,98856.83
2018-09-03T15:17:05.618Z,98855.94
2018-09-03T15:19:32.897Z,98858.23
2018-09-03T15:22:00.098Z,98863.55
2018-09-03T15:24:27.227Z,98866.00
2018-09-03T15:26:54.410Z,98863.05
2018-09-03T15:29:21.552Z,98857.47
2018-09-03T15:31:48.726Z,98860.30
2018-09-03T15:34:15.826Z,98858.34
2018-09-03T15:36:43.191Z,98859.99
2018-09-03T15:39:11.487Z,98855.66
2018-09-03T15:41:38.774Z,98859.52
2018-09-03T15:44:06.213Z,98858.77
2018-09-03T15:46:33.579Z,98856.55
2018-09-03T15:49:00.759Z,98853.25
2018-09-03T15:51:27.855Z,98857.67
2018-09-03T15:53:55.121Z,98860.67
2018-09-03T15:56:22.246Z,98859.73
2018-09-03T15:58:49.394Z,98860.25
2018-09-03T16:01:16.511Z,98858.27
2018-09-03T16:03:43.629Z,98853.43
2018-09-03T16:06:10.758Z,98854.62
2018-09-03T16:08:37.910Z,98855.94
2018-09-03T16:11:05.091Z,98851.18
2018-09-03T16:13:32.234Z,98855.10
2018-09-03T16:15:59.345Z,98853.30
2018-09-03T16:18:27.614Z,98855.21
2018-09-03T16:20:54.924Z,98856.48
2018-09-03T16:23:22.058Z,98858.71
2018-09-03T16:25:49.199Z,98854.46
2018-09-03T16:28:16.342Z,98855.33
2018-09-03T16:30:43.432Z,98850.25
2018-09-03T16:33:11.221Z,98843.76
2018-09-03T16:35:38.365Z,98845.42
2018-09-03T16:38:05.604Z,98843.95
2018-09-03T16:40:32.748Z,98845.53
2018-09-03T16:42:59.934Z,98852.39
2018-09-03T16:45:27.105Z,98856.20
2018-09-03T16:47:54.234Z,98853.91
2018-09-03T16:50:21.417Z,98852.28
2018-09-03T16:52:48.626Z,98850.92
2018-09-03T16:55:15.788Z,98854.72
2018-09-03T16:57:42.894Z,98853.05
2018-09-03T17:00:10.034Z,98855.07
2018-09-03T17:02:37.190Z,98851.97
2018-09-03T17:05:04.337Z,98851.89
2018-09-03T17:07:31.745Z,98855.94
2018-09-03T17:09:58.957Z,98847.09
2018-09-03T17:12:33.092Z,98854.00
2018-09-03T17:15:00.322Z,98860.92
2018-09-03T17:17:27.489Z,98854.89
2018-09-03T17:19:54.962Z,98853.47
2018-09-03T17:22:22.255Z,98856.07
2018-09-03T17:24:49.439Z,98862.92
2018-09-03T17:27:16.649Z,98869.21
2018-09-03T17:29:43.852Z,98869.21
2018-09-03T17:32:11.307Z,98868.68
2018-09-03T17:34:38.449Z,98871.36
2018-09-03T17:37:05.590Z,98873.20
2018-09-03T17:39:32.750Z,98874.87
2018-09-03T17:41:59.882Z,98877.00
2018-09-03T17:44:27.062Z,98885.23
2018-09-03T17:46:54.280Z,98883.33
2018-09-03T17:49:21.439Z,98890.30
2018-09-03T17:51:48.617Z,98891.30
2018-09-03T17:54:15.810Z,98891.59
2018-09-03T17:56:43.022Z,98896.19
2018-09-03T17:59:10.181Z,98892.70
2018-09-03T18:01:37.357Z,98896.29
2018-09-03T18:04:04.630Z,98898.84
2018-09-03T18:06:31.880Z,98898.94
2018-09-03T18:08:59.046Z,98901.19
2018-09-03T18:11:27.286Z,98900.08
2018-09-03T18:13:54.579Z,98901.28
2018-09-03T18:16:21.732Z,98902.71
2018-09-03T18:18:49.940Z,98901.08
2018-09-03T18:21:17.111Z,98905.10
2018-09-03T18:23:44.328Z,98911.77
2018-09-03T18:26:11.556Z,98904.80
2018-09-03T18:28:39.380Z,98911.41
2018-09-03T18:31:06.640Z,98912.34
2018-09-03T18:33:33.986Z,98918.95
2018-09-03T18:36:01.188Z,98919.39
2018-09-03T18:38:28.413Z,98915.12
2018-09-03T18:40:55.570Z,98916.20
2018-09-03T18:43:22.791Z,98920.36
2018-09-03T18:45:50.810Z,98927.37
2018-09-03T18:48:18.017Z,98929.85
2018-09-03T18:50:46.410Z,98933.19
2018-09-03T18:53:13.588Z,98898.58
2018-09-03T18:55:40.740Z,98932.46
2018-09-03T18:58:07.932Z,98932.00
2018-09-03T19:00:35.065Z,98931.73
2018-09-03T19:03:02.232Z,98932.62
2018-09-03T19:05:29.930Z,98932.89
2018-09-03T19:07:57.171Z,98932.98
2018-09-03T19:10:24.420Z,98932.07
2018-09-03T19:12:51.588Z,98928.38
2018-09-03T19:15:18.761Z,98926.22
2018-09-03T19:17:46.026Z,98924.96
2018-09-03T19:20:14.794Z,98926.85
2018-09-03T19:22:41.979Z,98924.84
2018-09-03T19:25:09.514Z,98930.94
2018-09-03T19:27:36.818Z,98930.50
2018-09-03T19:30:04.222Z,98932.81
2018-09-03T19:32:31.476Z,98928.42
2018-09-03T19:35:01.795Z,98936.80
2018-09-03T19:37:28.941Z,98941.48
2018-09-03T19:39:56.140Z,98939.44
2018-09-03T19:42:24.172Z,98940.08
2018-09-03T19:44:51.748Z,98940.24
2018-09-03T19:47:18.946Z,98941.14
2018-09-03T19:49:46.124Z,98941.42
2018-09-03T19:52:16.851Z,98937.86
2018-09-03T19:54:44.164Z,98943.22
2018-09-03T19:57:11.390Z,98935.59
2018-09-03T19:59:38.634Z,98935.13
2018-09-03T20:02:06.142Z,98940.50
2018-09-03T20:04:33.795Z,98942.34
2018-09-03T20:07:01.019Z,98936.22
2018-09-03T20:09:28.161Z,98940.63
2018-09-03T20:11:55.395Z,98935.13
2018-09-03T20:14:22.837Z,98940.41
2018-09-03T20:16:50.013Z,98944.89
2018-09-03T20:19:17.281Z,98942.16
2018-09-03T20:21:44.419Z,98943.58
2018-09-03T20:24:12.029Z,98938.93
2018-09-03T20:26:39.357Z,98937.95
2018-09-03T20:29:06.576Z,98938.58
2018-09-03T20:31:34.005Z,98936.91
2018-09-03T20:34:01.160Z,98931.38
2018-09-03T20:36:28.702Z,98931.00
2018-09-03T20:38:56.769Z,98928.19
2018-09-03T20:41:23.996Z,98933.37
2018-09-03T20:43:51.183Z,98930.40
2018-09-03T20:46:18.488Z,98931.55
2018-09-03T20:48:46.288Z,98929.00
2018-09-03T20:51:14.080Z,98925.45
2018-09-03T20:53:41.313Z,98936.88
2018-09-03T20:56:08.512Z,98932.80
2018-09-03T20:58:35.793Z,98935.41
2018-09-03T21:01:03.104Z,98929.11
2018-09-03T21:03:30.450Z,98926.05
2018-09-03T21:05:57.645Z,98927.52
2018-09-03T21:08:24.841Z,98922.03
2018-09-03T21:10:52.077Z,98929.44
2018-09-03T21:13:20.835Z,98927.23
2018-09-03T21:15:48.126Z,98934.67
2018-09-03T21:18:15.232Z,98935.47
2018-09-03T21:20:48.090Z,98929.23
2018-09-03T21:23:15.713Z,98929.23
2018-09-03T21:25:43.203Z,98928.52
2018-09-03T21:28:10.603Z,98929.64
2018-09-03T21:30:37.730Z,98920.89
2018-09-03T21:33:04.918Z,98924.22
2018-09-03T21:35:32.152Z,98920.75
2018-09-03T21:37:59.401Z,98923.72
2018-09-03T21:40:26.575Z,98927.52
2018-09-03T21:42:53.738Z,98929.88
2018-09-03T21:45:21.217Z,98934.61
2018-09-03T21:47:48.437Z,98932.72
2018-09-03T21:50:15.587Z,98932.39
2018-09-03T21:52:42.747Z,98928.45
2018-09-03T21:55:09.978Z,98924.59
2018-09-03T21:57:37.206Z,98931.08
2018-09-03T22:00:04.569Z,98931.95
2018-09-03T22:02:31.767Z,98929.89
2018-09-03T22:04:58.885Z,98934.84
2018-09-03T22:07:26.075Z,98926.33
2018-09-03T22:09:53.612Z,98926.66
2018-09-03T22:12:20.778Z,98927.28
2018-09-03T22:14:47.902Z,98929.42
2018-09-03T22:17:15.150Z,98923.27
2018-09-03T22:19:42.318Z,98926.27
2018-09-03T22:22:09.729Z,98925.48
2018-09-03T22:24:36.863Z,98931.39
2018-09-03T22:27:04.037Z,98923.06
2018-09-03T22:29:31.313Z,98930.38
2018-09-03T22:31:58.487Z,98925.42
2018-09-03T22:34:25.587Z,98914.78
2018-09-03T22:36:52.789Z,98920.38
2018-09-03T22:39:19.951Z,98914.16
2018-09-03T22:41:47.107Z,98908.34
2018-09-03T22:44:14.227Z,98917.78
2018-09-03T22:46:41.402Z,98918.01
2018-09-03T22:49:08.509Z,98918.01
2018-09-03T22:51:35.711Z,98922.02
2018-09-03T22:54:02.867Z,98921.80
2018-09-03T22:56:29.995Z,98921.80
2018-09-03T22:58:57.106Z,98926.36
2018-09-03T23:01:24.174Z,98929.44
2018-09-03T23:03:51.329Z,98929.77
2018-09-03T23:06:18.441Z,98921.16
2018-09-03T23:08:45.576Z,98926.91
2018-09-03T23:11:12.793Z,98916.84
2018-09-03T23:13:39.904Z,98917.69
2018-09-03T23:16:07.043Z,98920.91
2018-09-03T23:18:34.188Z,98920.66
2018-09-03T23:21:01.302Z,98917.79
2018-09-03T23:23:28.424Z,98913.85
2018-09-03T23:25:55.548Z,98912.58
2018-09-03T23:28:22.733Z,98908.17
2018-09-03T23:30:49.952Z,98900.94
2018-09-03T23:33:17.093Z,98898.23
2018-09-03T23:35:44.199Z,98903.51
2018-09-03T23:38:11.309Z,98900.36
2018-09-03T23:40:38.421Z,98896.96
2018-09-03T23:43:05.524Z,98899.42
2018-09-03T23:45:32.753Z,98893.34
2018-09-03T23:47:59.870Z,98896.56
2018-09-03T23:50:27.001Z,98891.61
2018-09-03T23:52:54.386Z,98893.09
2018-09-03T23:55:21.518Z,98890.88
2018-09-03T23:57:48.674Z,98894.81
